createdAt,value
2022-12-08T00:01:20.170Z,95735.72
2022-12-08T00:03:47.814Z,95734.13
2022-12-08T00:06:56.031Z,95729.84
2022-12-08T00:09:25.823Z,95730.25
2022-12-08T00:11:58.295Z,95736.63
2022-12-08T00:14:46.164Z,95722.59
2022-12-08T00:17:14.641Z,95717.50
2022-12-08T00:19:42.098Z,95718.53
2022-12-08T00:22:10.565Z,95720.66
2022-12-08T00:24:41.770Z,95721.13
2022-12-08T00:27:09.805Z,95715.28
2022-12-08T00:29:36.408Z,95711.63
2022-12-08T00:32:03.351Z,95711.63
2022-12-08T00:34:31.376Z,95702.09
2022-12-08T00:36:57.932Z,95704.72
2022-12-08T00:39:24.901Z,95711.56
2022-12-08T00:42:10.229Z,95718.09
2022-12-08T00:44:36.823Z,95706.22
2022-12-08T00:47:03.906Z,95709.38
2022-12-08T00:49:30.501Z,95705.13
2022-12-08T00:51:57.137Z,95702.00
2022-12-08T00:54:24.244Z,95707.63
2022-12-08T00:56:51.042Z,95704.53
2022-12-08T00:59:17.777Z,95706.19
2022-12-08T01:01:45.973Z,95707.72
2022-12-08T01:04:18.269Z,95705.31
2022-12-08T01:06:45.897Z,95708.00
2022-12-08T01:09:14.643Z,95714.00
2022-12-08T01:11:41.318Z,95703.00
2022-12-08T01:14:07.922Z,95709.78
2022-12-08T01:16:36.068Z,95709.28
2022-12-08T01:19:03.769Z,95709.28
2022-12-08T01:21:30.370Z,95711.31
2022-12-08T01:24:00.324Z,95715.50
2022-12-08T01:26:26.937Z,95711.69
2022-12-08T01:28:53.617Z,95705.97
2022-12-08T01:31:22.102Z,95701.72
2022-12-08T01:33:49.667Z,95709.25
2022-12-08T01:36:23.651Z,95707.13
2022-12-08T01:38:50.960Z,95697.03
2022-12-08T01:41:20.213Z,95702.06
2022-12-08T01:44:04.140Z,95698.22
2022-12-08T01:46:33.264Z,95693.91
2022-12-08T01:49:28.589Z,95694.00
2022-12-08T01:52:20.310Z,95691.00
2022-12-08T01:55:03.358Z,95691.66
2022-12-08T01:57:36.018Z,95691.00
2022-12-08T02:00:08.441Z,95693.38
2022-12-08T02:02:57.289Z,95695.59
2022-12-08T02:05:28.303Z,95692.50
2022-12-08T02:07:57.204Z,95689.47
2022-12-08T02:10:27.266Z,95689.59
2022-12-08T02:12:56.737Z,95689.38
2022-12-08T02:15:40.455Z,95688.16
2022-12-08T02:18:22.974Z,95685.53
2022-12-08T02:21:00.953Z,95676.53
2022-12-08T02:23:38.117Z,95681.28
2022-12-08T02:26:23.224Z,95670.31
2022-12-08T02:29:12.703Z,95674.63
2022-12-08T02:31:51.152Z,95670.94
2022-12-08T02:34:43.740Z,95672.44
2022-12-08T02:37:23.934Z,95667.75
2022-12-08T02:40:03.649Z,95655.59
2022-12-08T02:42:59.558Z,95659.94
2022-12-08T02:45:34.737Z,95663.84
2022-12-08T02:48:01.315Z,95644.75
2022-12-08T02:50:29.039Z,95653.00
2022-12-08T02:52:55.739Z,95649.50
2022-12-08T02:55:22.333Z,95646.88
2022-12-08T02:58:03.965Z,95654.66
2022-12-08T03:00:42.990Z,95644.56
2022-12-08T03:03:13.053Z,95651.41
2022-12-08T03:05:45.410Z,95641.94
2022-12-08T03:08:16.768Z,95639.63
2022-12-08T03:10:50.118Z,95638.56
2022-12-08T03:13:23.529Z,95635.16
2022-12-08T03:15:52.935Z,95634.88
2022-12-08T03:18:23.993Z,95631.63
2022-12-08T03:20:51.937Z,95644.34
2022-12-08T03:23:19.827Z,95634.75
2022-12-08T03:25:58.745Z,95624.00
2022-12-08T03:28:25.673Z,95623.63
2022-12-08T03:30:56.569Z,95627.38
2022-12-08T03:33:31.640Z,95628.03
2022-12-08T03:36:01.819Z,95624.81
2022-12-08T03:38:38.827Z,95623.13
2022-12-08T03:41:20.816Z,95629.44
2022-12-08T03:43:50.116Z,95626.88
2022-12-08T03:46:17.749Z,95623.75
2022-12-08T03:48:44.710Z,95630.13
2022-12-08T03:51:11.834Z,95615.47
2022-12-08T03:53:38.481Z,95612.41
2022-12-08T03:56:26.685Z,95612.25
2022-12-08T03:58:54.776Z,95613.00
2022-12-08T04:01:22.741Z,95616.81
2022-12-08T04:03:50.096Z,95612.06
2022-12-08T04:06:16.981Z,95614.69
2022-12-08T04:08:43.841Z,95613.34
2022-12-08T04:11:11.233Z,95608.50
2022-12-08T04:13:39.449Z,95606.88
2022-12-08T04:16:07.393Z,95607.81
2022-12-08T04:18:34.997Z,95609.00
2022-12-08T04:21:01.961Z,95607.56
2022-12-08T04:23:28.553Z,95594.41
2022-12-08T04:25:55.156Z,95596.63
2022-12-08T04:28:21.889Z,95602.41
2022-12-08T04:30:49.762Z,95600.66
2022-12-08T04:33:16.894Z,95605.88
2022-12-08T04:35:43.480Z,95603.31
2022-12-08T04:38:10.195Z,95602.34
2022-12-08T04:40:36.770Z,95591.91
2022-12-08T04:43:03.501Z,95599.06
2022-12-08T04:45:30.345Z,95600.78
2022-12-08T04:47:56.938Z,95598.72
2022-12-08T04:50:23.519Z,95592.81
2022-12-08T04:52:50.230Z,95598.28
2022-12-08T04:55:16.985Z,95596.44
2022-12-08T04:57:43.729Z,95588.25
2022-12-08T05:00:11.412Z,95597.63
2022-12-08T05:02:38.092Z,95586.50
2022-12-08T05:05:05.531Z,95582.69
2022-12-08T05:07:32.734Z,95584.19
2022-12-08T05:09:59.354Z,95585.63
2022-12-08T05:12:26.018Z,95585.97
2022-12-08T05:14:52.613Z,95581.59
2022-12-08T05:17:19.299Z,95587.19
2022-12-08T05:19:45.895Z,95578.22
2022-12-08T05:22:12.500Z,95580.78
2022-12-08T05:24:44.021Z,95582.44
2022-12-08T05:27:13.739Z,95580.16
2022-12-08T05:29:40.314Z,95577.09
2022-12-08T05:32:07.065Z,95575.00
2022-12-08T05:34:33.843Z,95573.63
2022-12-08T05:37:00.402Z,95575.59
2022-12-08T05:39:27.049Z,95577.25
2022-12-08T05:41:53.648Z,95578.16
2022-12-08T05:44:20.210Z,95580.25
2022-12-08T05:46:46.784Z,95576.91
2022-12-08T05:49:13.383Z,95575.91
2022-12-08T05:51:39.958Z,95582.75
2022-12-08T05:54:06.623Z,95576.97
2022-12-08T05:56:33.232Z,95575.94
2022-12-08T05:58:59.802Z,95577.44
2022-12-08T06:01:31.850Z,95577.94
2022-12-08T06:04:00.458Z,95576.91
2022-12-08T06:06:28.126Z,95576.25
2022-12-08T06:08:55.322Z,95578.22
2022-12-08T06:11:25.498Z,95580.91
2022-12-08T06:13:52.450Z,95586.13
2022-12-08T06:16:19.428Z,95581.19
2022-12-08T06:18:46.263Z,95575.31
2022-12-08T06:21:14.858Z,95580.75
2022-12-08T06:23:41.874Z,95578.84
2022-12-08T06:26:11.891Z,95582.38
2022-12-08T06:28:39.587Z,95583.97
2022-12-08T06:31:16.536Z,95583.97
2022-12-08T06:33:43.762Z,95581.09
2022-12-08T06:36:13.049Z,95580.00
2022-12-08T06:38:43.337Z,95577.72
2022-12-08T06:41:12.117Z,95569.91
2022-12-08T06:43:39.040Z,95573.41
2022-12-08T06:46:08.904Z,95571.63
2022-12-08T06:48:35.690Z,95578.38
2022-12-08T06:51:20.724Z,95569.19
2022-12-08T06:53:47.524Z,95573.81
2022-12-08T06:56:15.925Z,95575.25
2022-12-08T06:58:46.184Z,95585.09
2022-12-08T07:01:17.229Z,95580.72
2022-12-08T07:03:43.953Z,95585.59
2022-12-08T07:06:16.895Z,95587.31
2022-12-08T07:08:44.045Z,95596.91
2022-12-08T07:11:14.198Z,95580.00
2022-12-08T07:13:44.905Z,95592.13
2022-12-08T07:16:12.728Z,95585.28
2022-12-08T07:18:39.737Z,95588.94
2022-12-08T07:21:08.378Z,95593.25
2022-12-08T07:23:35.181Z,95581.50
2022-12-08T07:26:03.429Z,95598.84
2022-12-08T07:28:32.596Z,95587.97
2022-12-08T07:30:59.520Z,95592.94
2022-12-08T07:33:26.655Z,95586.50
2022-12-08T07:36:01.657Z,95596.91
2022-12-08T07:38:28.829Z,95590.41
2022-12-08T07:40:55.429Z,95581.50
2022-12-08T07:43:23.067Z,95583.72
2022-12-08T07:45:50.342Z,95584.84
2022-12-08T07:48:17.291Z,95580.97
2022-12-08T07:50:44.741Z,95576.66
2022-12-08T07:53:11.617Z,95570.41
2022-12-08T07:55:44.847Z,95576.91
2022-12-08T07:58:11.857Z,95575.91
2022-12-08T08:00:38.585Z,95575.13
2022-12-08T08:03:06.260Z,95570.75
2022-12-08T08:05:32.983Z,95575.75
2022-12-08T08:07:59.621Z,95568.88
2022-12-08T08:10:26.394Z,95573.34
2022-12-08T08:12:52.978Z,95568.19
2022-12-08T08:15:21.172Z,95565.16
2022-12-08T08:17:51.477Z,95568.56
2022-12-08T08:20:18.905Z,95568.91
2022-12-08T08:22:47.194Z,95574.59
2022-12-08T08:25:14.802Z,95570.91
2022-12-08T08:27:41.398Z,95573.09
2022-12-08T08:30:15.244Z,95576.28
2022-12-08T08:32:44.955Z,95567.03
2022-12-08T08:35:11.913Z,95565.19
2022-12-08T08:37:38.481Z,95573.16
2022-12-08T08:40:05.979Z,95561.72
2022-12-08T08:42:32.783Z,95572.56
2022-12-08T08:44:59.360Z,95563.44
2022-12-08T08:47:25.959Z,95562.38
2022-12-08T08:49:52.539Z,95554.31
2022-12-08T08:52:19.144Z,95549.69
2022-12-08T08:54:45.795Z,95548.25
2022-12-08T08:57:12.545Z,95546.59
2022-12-08T08:59:39.111Z,95546.03
2022-12-08T09:02:05.768Z,95544.53
2022-12-08T09:04:32.553Z,95542.59
2022-12-08T09:06:59.571Z,95539.66
2022-12-08T09:09:26.190Z,95534.53
2022-12-08T09:11:52.752Z,95536.00
2022-12-08T09:14:19.369Z,95543.88
2022-12-08T09:16:46.002Z,95536.09
2022-12-08T09:19:12.657Z,95538.81
2022-12-08T09:21:40.025Z,95539.56
2022-12-08T09:24:07.071Z,95532.13
2022-12-08T09:26:33.958Z,95529.69
2022-12-08T09:29:00.599Z,95529.56
2022-12-08T09:31:27.423Z,95527.50
2022-12-08T09:33:54.140Z,95516.72
2022-12-08T09:36:21.406Z,95521.72
2022-12-08T09:38:49.197Z,95508.50
2022-12-08T09:41:39.201Z,95509.34
2022-12-08T09:44:20.409Z,95503.66
2022-12-08T09:46:51.297Z,95500.63
2022-12-08T09:49:23.201Z,95492.44
2022-12-08T09:51:49.941Z,95485.66
2022-12-08T09:54:24.193Z,95483.75
2022-12-08T09:56:55.046Z,95481.84
2022-12-08T09:59:34.504Z,95474.25
2022-12-08T10:02:03.053Z,95465.97
2022-12-08T10:04:36.378Z,95478.34
2022-12-08T10:07:27.053Z,95472.63
2022-12-08T10:09:59.798Z,95471.25
2022-12-08T10:12:58.380Z,95465.81
2022-12-08T10:15:36.680Z,95467.28
2022-12-08T10:18:11.811Z,95460.19
2022-12-08T10:20:42.210Z,95444.44
2022-12-08T10:23:21.338Z,95449.09
2022-12-08T10:25:52.085Z,95447.19
2022-12-08T10:28:18.758Z,95441.47
2022-12-08T10:30:45.350Z,95437.28
2022-12-08T10:33:16.342Z,95434.38
2022-12-08T10:35:46.498Z,95420.81
2022-12-08T10:38:26.610Z,95422.72
2022-12-08T10:40:59.860Z,95410.00
2022-12-08T10:43:27.247Z,95419.53
2022-12-08T10:45:54.469Z,95403.16
2022-12-08T10:48:31.337Z,95395.97
2022-12-08T10:50:59.531Z,95393.06
2022-12-08T10:53:31.816Z,95387.25
2022-12-08T10:55:58.338Z,95390.28
2022-12-08T10:58:35.485Z,95388.00
2022-12-08T11:01:12.046Z,95380.44
2022-12-08T11:03:50.645Z,95377.97
2022-12-08T11:06:24.109Z,95376.75
2022-12-08T11:08:54.010Z,95369.16
2022-12-08T11:11:27.677Z,95363.06
2022-12-08T11:13:56.364Z,95356.84
2022-12-08T11:16:23.537Z,95354.94
2022-12-08T11:18:57.125Z,95340.69
2022-12-08T11:21:36.134Z,95348.47
2022-12-08T11:24:14.721Z,95347.56
2022-12-08T11:26:47.729Z,95351.25
2022-12-08T11:29:14.308Z,95338.09
2022-12-08T11:31:46.428Z,95328.53
2022-12-08T11:34:23.030Z,95330.19
2022-12-08T11:36:51.137Z,95329.97
2022-12-08T11:39:18.464Z,95328.13
2022-12-08T11:41:46.260Z,95321.63
2022-12-08T11:44:53.718Z,95315.38
2022-12-08T11:47:24.316Z,95313.44
2022-12-08T11:49:56.875Z,95306.56
2022-12-08T11:52:57.063Z,95296.47
2022-12-08T11:55:37.071Z,95290.97
2022-12-08T11:58:28.231Z,95294.59
2022-12-08T12:00:54.868Z,95290.81
2022-12-08T12:03:30.447Z,95289.31
2022-12-08T12:09:17.575Z,95280.88
2022-12-08T12:12:08.770Z,95282.00
2022-12-08T12:14:45.187Z,95279.09
2022-12-08T12:17:47.189Z,95272.81
2022-12-08T12:20:54.993Z,95272.63
2022-12-08T12:23:28.822Z,95259.41
2022-12-08T12:26:01.229Z,95267.47
2022-12-08T12:28:36.503Z,95271.38
2022-12-08T12:31:08.444Z,95262.13
2022-12-08T12:33:36.218Z,95265.19
2022-12-08T12:36:06.851Z,95258.63
2022-12-08T12:38:56.358Z,95249.63
2022-12-08T12:41:35.749Z,95248.06
2022-12-08T12:44:24.222Z,95255.84
2022-12-08T12:46:50.774Z,95258.09
2022-12-08T12:49:38.720Z,95255.03
2022-12-08T12:52:33.833Z,95255.81
2022-12-08T12:55:00.357Z,95255.88
2022-12-08T12:57:37.089Z,95255.06
2022-12-08T13:00:03.640Z,95261.22
2022-12-08T13:02:33.390Z,95255.63
2022-12-08T13:05:18.421Z,95244.56
2022-12-08T13:08:03.798Z,95244.97
2022-12-08T13:10:37.439Z,95244.47
2022-12-08T13:13:07.066Z,95242.00
2022-12-08T13:15:55.614Z,95237.38
2022-12-08T13:18:29.088Z,95229.59
2022-12-08T13:21:05.847Z,95233.50
2022-12-08T13:23:38.260Z,95231.00
2022-12-08T13:26:23.957Z,95253.13
2022-12-08T13:28:59.511Z,95260.38
2022-12-08T13:31:53.238Z,95261.41
2022-12-08T13:34:39.213Z,95254.50
2022-12-08T13:37:12.037Z,95256.63
2022-12-08T13:40:06.066Z,95257.44
2022-12-08T13:42:53.872Z,95259.19
2022-12-08T13:46:10.920Z,95260.88
2022-12-08T13:49:52.648Z,95262.84
2022-12-08T13:57:30.578Z,95249.66
2022-12-08T14:00:01.377Z,95249.50
2022-12-08T14:02:39.526Z,95249.03
2022-12-08T14:05:18.274Z,95251.84
2022-12-08T14:07:48.351Z,95251.84
2022-12-08T14:10:20.737Z,95259.59
2022-12-08T14:12:55.282Z,95272.44
2022-12-08T14:15:23.280Z,95272.47
2022-12-08T14:17:54.503Z,95281.63
2022-12-08T14:20:30.197Z,95283.72
2022-12-08T14:22:59.456Z,95282.75
2022-12-08T14:25:28.839Z,95282.44
2022-12-08T14:28:04.561Z,95285.88
2022-12-08T14:30:32.867Z,95282.75
2022-12-08T14:33:01.153Z,95281.66
2022-12-08T14:35:32.932Z,95276.13
2022-12-08T14:38:02.253Z,95275.16
2022-12-08T14:40:42.851Z,95274.34
2022-12-08T14:43:09.402Z,95281.97
2022-12-08T14:45:38.976Z,95282.25
2022-12-08T14:48:42.803Z,95287.44
2022-12-08T14:51:21.438Z,95280.28
2022-12-08T14:53:55.836Z,95277.03
2022-12-08T14:56:26.632Z,95278.09
2022-12-08T14:59:07.565Z,95282.91
2022-12-08T15:01:34.899Z,95293.75
2022-12-08T15:04:13.948Z,95293.28
2022-12-08T15:07:00.671Z,95306.09
2022-12-08T15:09:43.819Z,95307.06
2022-12-08T15:12:13.444Z,95309.06
2022-12-08T15:14:55.719Z,95315.06
2022-12-08T15:17:50.202Z,95302.72
2022-12-08T15:20:43.051Z,95305.41
2022-12-08T15:23:31.280Z,95309.13
2022-12-08T15:25:58.950Z,95303.19
2022-12-08T15:28:30.343Z,95306.59
2022-12-08T15:30:58.544Z,95310.56
2022-12-08T15:33:25.631Z,95304.84
2022-12-08T15:35:53.094Z,95302.41
2022-12-08T15:38:28.952Z,95309.66
2022-12-08T15:40:58.851Z,95316.25
2022-12-08T15:43:25.709Z,95312.47
2022-12-08T15:45:59.613Z,95322.56
2022-12-08T15:48:29.189Z,95316.19
2022-12-08T15:50:57.082Z,95313.94
2022-12-08T15:53:23.921Z,95314.72
2022-12-08T15:56:26.382Z,95314.75
2022-12-08T15:58:53.618Z,95312.16
2022-12-08T16:01:21.839Z,95310.78
2022-12-08T16:09:33.401Z,95311.00
2022-12-08T16:12:19.503Z,95315.84
2022-12-08T16:17:33.263Z,95307.28
2022-12-08T16:19:59.959Z,95314.66
2022-12-08T16:22:54.198Z,95311.75
2022-12-08T16:25:20.702Z,95318.94
2022-12-08T16:28:12.543Z,95314.91
2022-12-08T16:30:40.377Z,95315.63
2022-12-08T16:33:07.462Z,95315.47
2022-12-08T16:35:34.124Z,95314.44
2022-12-08T16:38:01.028Z,95315.44
2022-12-08T16:40:27.605Z,95315.00
2022-12-08T16:42:54.218Z,95321.41
2022-12-08T16:45:24.137Z,95313.97
2022-12-08T16:47:52.993Z,95314.97
2022-12-08T16:50:23.391Z,95311.13
2022-12-08T16:52:56.065Z,95313.03
2022-12-08T16:55:22.680Z,95312.94
2022-12-08T16:57:49.318Z,95317.41
2022-12-08T17:00:19.882Z,95310.22
2022-12-08T17:02:46.890Z,95319.78
2022-12-08T17:05:15.403Z,95314.75
2022-12-08T17:07:43.714Z,95311.69
2022-12-08T17:10:13.484Z,95322.59
2022-12-08T17:12:40.200Z,95315.53
2022-12-08T17:15:13.509Z,95317.13
2022-12-08T17:17:40.241Z,95317.19
2022-12-08T17:20:12.525Z,95317.22
2022-12-08T17:22:39.162Z,95312.22
2022-12-08T17:25:06.416Z,95309.41
2022-12-08T17:27:33.165Z,95310.66
2022-12-08T17:29:59.786Z,95311.78
2022-12-08T17:32:27.095Z,95304.28
2022-12-08T17:34:53.861Z,95303.72
2022-12-08T17:37:20.543Z,95299.94
2022-12-08T17:39:47.171Z,95305.34
2022-12-08T17:42:13.800Z,95305.88
2022-12-08T17:44:40.657Z,95307.47
2022-12-08T17:47:07.268Z,95310.31
2022-12-08T17:49:34.711Z,95312.25
2022-12-08T17:52:04.862Z,95314.25
2022-12-08T17:54:31.515Z,95303.09
2022-12-08T17:56:58.828Z,95311.34
2022-12-08T17:59:27.014Z,95295.66
2022-12-08T18:01:54.726Z,95297.28
2022-12-08T18:04:22.148Z,95290.84
2022-12-08T18:06:49.101Z,95285.00
2022-12-08T18:09:16.139Z,95281.03
2022-12-08T18:11:43.947Z,95287.97
2022-12-08T18:14:11.417Z,95286.88
2022-12-08T18:16:40.269Z,95282.63
2022-12-08T18:19:07.989Z,95282.88
2022-12-08T18:21:35.281Z,95282.09
2022-12-08T18:24:02.342Z,95277.59
2022-12-08T18:26:30.675Z,95273.34
2022-12-08T18:28:57.728Z,95273.59
2022-12-08T18:31:25.185Z,95272.56
2022-12-08T18:33:52.860Z,95274.94
2022-12-08T18:36:23.081Z,95274.19
2022-12-08T18:38:49.962Z,95271.03
2022-12-08T18:41:25.778Z,95280.59
2022-12-08T18:43:56.972Z,95279.88
2022-12-08T18:46:25.404Z,95277.03
2022-12-08T18:48:52.897Z,95282.06
2022-12-08T18:51:22.927Z,95278.59
2022-12-08T18:53:50.475Z,95282.31
2022-12-08T18:56:21.234Z,95287.09
2022-12-08T18:58:48.176Z,95287.09
2022-12-08T19:01:15.376Z,95293.97
2022-12-08T19:03:52.761Z,95291.31
2022-12-08T19:06:29.858Z,95289.75
2022-12-08T19:08:57.184Z,95296.63
2022-12-08T19:11:26.421Z,95293.69
2022-12-08T19:13:54.387Z,95287.63
2022-12-08T19:16:22.045Z,95283.38
2022-12-08T19:18:48.882Z,95281.28
2022-12-08T19:21:15.526Z,95284.16
2022-12-08T19:23:42.289Z,95286.53
2022-12-08T19:26:10.501Z,95295.56
2022-12-08T19:28:37.305Z,95286.53
2022-12-08T19:31:09.317Z,95282.06
2022-12-08T19:33:37.069Z,95283.34
2022-12-08T19:36:13.969Z,95282.31
2022-12-08T19:39:04.105Z,95283.63
2022-12-08T19:41:49.580Z,95290.22
2022-12-08T19:44:45.865Z,95287.59
2022-12-08T19:47:12.675Z,95304.53
2022-12-08T19:49:39.486Z,95307.13
2022-12-08T19:52:06.626Z,95301.28
2022-12-08T19:54:33.811Z,95301.25
2022-12-08T19:57:00.437Z,95300.69
2022-12-08T19:59:27.198Z,95295.38
2022-12-08T20:01:55.887Z,95291.13
2022-12-08T20:04:24.252Z,95292.47
2022-12-08T20:06:52.586Z,95298.53
2022-12-08T20:09:19.865Z,95288.22
2022-12-08T20:11:46.481Z,95290.94
2022-12-08T20:14:13.255Z,95287.50
2022-12-08T20:16:41.795Z,95292.72
2022-12-08T20:19:08.550Z,95295.94
2022-12-08T20:21:35.278Z,95290.41
2022-12-08T20:24:01.915Z,95289.59
2022-12-08T20:26:28.543Z,95286.91
2022-12-08T20:28:55.127Z,95305.22
2022-12-08T20:31:24.651Z,95302.03
2022-12-08T20:33:51.670Z,95298.28
2022-12-08T20:36:19.766Z,95299.56
2022-12-08T20:38:47.146Z,95304.88
2022-12-08T20:41:16.142Z,95310.56
2022-12-08T20:43:43.908Z,95300.00
2022-12-08T20:46:13.133Z,95301.66
2022-12-08T20:48:40.258Z,95298.53
2022-12-08T20:51:07.110Z,95300.09
2022-12-08T20:53:33.830Z,95297.91
2022-12-08T20:56:00.533Z,95294.00
2022-12-08T20:58:27.360Z,95297.19
2022-12-08T21:00:54.195Z,95298.03
2022-12-08T21:03:21.050Z,95290.53
2022-12-08T21:05:49.970Z,95287.06
2022-12-08T21:08:17.742Z,95302.16
2022-12-08T21:10:44.568Z,95293.59
2022-12-08T21:13:11.306Z,95297.53
2022-12-08T21:15:38.223Z,95296.34
2022-12-08T21:18:04.992Z,95305.41
2022-12-08T21:20:31.831Z,95302.84
2022-12-08T21:22:58.522Z,95296.94
2022-12-08T21:25:25.276Z,95284.53
2022-12-08T21:27:51.971Z,95277.66
2022-12-08T21:30:18.752Z,95282.44
2022-12-08T21:32:45.542Z,95285.91
2022-12-08T21:35:12.793Z,95285.78
2022-12-08T21:37:39.606Z,95278.56
2022-12-08T21:40:07.666Z,95279.78
2022-12-08T21:42:44.089Z,95281.44
2022-12-08T21:45:13.210Z,95275.31
2022-12-08T21:47:40.340Z,95280.72
2022-12-08T21:50:08.393Z,95293.00
2022-12-08T21:52:40.239Z,95290.28
2022-12-08T21:55:08.299Z,95286.50
2022-12-08T21:57:34.955Z,95287.13
2022-12-08T22:00:01.768Z,95288.22
2022-12-08T22:02:28.824Z,95294.53
2022-12-08T22:04:55.710Z,95286.06
2022-12-08T22:07:24.076Z,95293.50
2022-12-08T22:09:50.865Z,95297.09
2022-12-08T22:12:17.885Z,95294.22
2022-12-08T22:14:44.532Z,95297.34
2022-12-08T22:17:11.392Z,95289.91
2022-12-08T22:19:38.508Z,95297.53
2022-12-08T22:22:05.168Z,95294.84
2022-12-08T22:24:32.096Z,95298.59
2022-12-08T22:26:58.791Z,95298.22
2022-12-08T22:29:25.704Z,95300.84
2022-12-08T22:31:52.441Z,95294.41
2022-12-08T22:34:19.070Z,95285.34
2022-12-08T22:36:46.019Z,95289.56
2022-12-08T22:39:12.756Z,95282.75
2022-12-08T22:41:39.525Z,95279.13
2022-12-08T22:44:07.236Z,95276.44
2022-12-08T22:46:34.239Z,95275.53
2022-12-08T22:49:00.974Z,95271.13
2022-12-08T22:51:27.759Z,95267.22
2022-12-08T22:53:54.355Z,95257.53
2022-12-08T22:56:20.989Z,95257.19
2022-12-08T22:58:47.786Z,95248.78
2022-12-08T23:01:29.300Z,95233.50
2022-12-08T23:03:57.525Z,95233.41
2022-12-08T23:06:25.738Z,95224.47
2022-12-08T23:08:53.220Z,95224.06
2022-12-08T23:11:21.526Z,95226.63
2022-12-08T23:13:48.506Z,95232.16
2022-12-08T23:16:16.171Z,95236.94
2022-12-08T23:18:44.958Z,95238.56
2022-12-08T23:21:16.725Z,95240.03
2022-12-08T23:23:43.872Z,95238.03
2022-12-08T23:26:22.616Z,95247.59
2022-12-08T23:28:49.606Z,95251.97
2022-12-08T23:31:16.996Z,95244.78
2022-12-08T23:33:43.896Z,95247.84
2022-12-08T23:36:12.826Z,95233.63
2022-12-08T23:38:39.509Z,95231.66
2022-12-08T23:41:08.592Z,95232.25
2022-12-08T23:43:35.597Z,95231.81
2022-12-08T23:46:03.093Z,95224.97
2022-12-08T23:48:30.201Z,95222.53
2022-12-08T23:50:57.218Z,95225.47
2022-12-08T23:53:24.001Z,95227.53
2022-12-08T23:55:50.684Z,95224.56
2022-12-08T23:58:17.295Z,95225.53
